sensor_id;sensor_type;location;lat;lon;timestamp;P1;durP1;ratioP1;P2;durP2;ratioP2
68505;SDS011;55509;50.680;17.942;2022-10-16T00:03:43;18.60;;;14.40;;
68505;SDS011;55509;50.680;17.942;2022-10-16T00:06:45;20.20;;;15.90;;
68505;SDS011;55509;50.680;17.942;2022-10-16T00:09:47;19.40;;;14.60;;
68505;SDS011;55509;50.680;17.942;2022-10-16T00:12:49;20.80;;;15.00;;
68505;SDS011;55509;50.680;17.942;2022-10-16T00:15:50;21.30;;;15.40;;
68505;SDS011;55509;50.680;17.942;2022-10-16T00:18:56;21.20;;;16.80;;
68505;SDS011;55509;50.680;17.942;2022-10-16T00:21:58;20.40;;;17.00;;
68505;SDS011;55509;50.680;17.942;2022-10-16T00:28:01;20.90;;;17.00;;
68505;SDS011;55509;50.680;17.942;2022-10-16T00:31:03;30.20;;;19.10;;
68505;SDS011;55509;50.680;17.942;2022-10-16T00:34:07;21.90;;;15.30;;
68505;SDS011;55509;50.680;17.942;2022-10-16T00:37:09;19.20;;;15.60;;
68505;SDS011;55509;50.680;17.942;2022-10-16T00:40:10;22.70;;;17.50;;
68505;SDS011;55509;50.680;17.942;2022-10-16T00:46:25;21.70;;;16.00;;
68505;SDS011;55509;50.680;17.942;2022-10-16T00:49:29;25.30;;;17.70;;
68505;SDS011;55509;50.680;17.942;2022-10-16T00:55:32;32.10;;;22.80;;
68505;SDS011;55509;50.680;17.942;2022-10-16T00:58:34;36.90;;;26.80;;
68505;SDS011;55509;50.680;17.942;2022-10-16T01:04:41;32.80;;;24.70;;
68505;SDS011;55509;50.680;17.942;2022-10-16T01:08:30;22.20;;;15.50;;
68505;SDS011;55509;50.680;17.942;2022-10-16T01:11:33;26.00;;;20.00;;
68505;SDS011;55509;50.680;17.942;2022-10-16T01:27:38;26.20;;;19.20;;
68505;SDS011;55509;50.680;17.942;2022-10-16T01:30:42;28.30;;;19.30;;
68505;SDS011;55509;50.680;17.942;2022-10-16T01:33:47;25.30;;;17.90;;
68505;SDS011;55509;50.680;17.942;2022-10-16T01:37:12;24.00;;;19.10;;
68505;SDS011;55509;50.680;17.942;2022-10-16T01:40:19;24.90;;;18.90;;
68505;SDS011;55509;50.680;17.942;2022-10-16T01:43:26;28.00;;;19.00;;
68505;SDS011;55509;50.680;17.942;2022-10-16T01:46:35;24.50;;;19.20;;
68505;SDS011;55509;50.680;17.942;2022-10-16T01:49:41;26.20;;;17.90;;
68505;SDS011;55509;50.680;17.942;2022-10-16T01:52:45;21.70;;;16.60;;
68505;SDS011;55509;50.680;17.942;2022-10-16T01:55:52;24.60;;;19.60;;
68505;SDS011;55509;50.680;17.942;2022-10-16T01:59:07;26.20;;;19.10;;
68505;SDS011;55509;50.680;17.942;2022-10-16T02:02:13;24.50;;;17.00;;
68505;SDS011;55509;50.680;17.942;2022-10-16T02:08:27;21.90;;;17.70;;
68505;SDS011;55509;50.680;17.942;2022-10-16T02:11:30;33.40;;;21.90;;
68505;SDS011;55509;50.680;17.942;2022-10-16T02:14:32;26.20;;;18.70;;
68505;SDS011;55509;50.680;17.942;2022-10-16T02:17:34;28.10;;;19.30;;
68505;SDS011;55509;50.680;17.942;2022-10-16T02:20:42;24.90;;;20.90;;
68505;SDS011;55509;50.680;17.942;2022-10-16T02:24:02;24.70;;;18.00;;
68505;SDS011;55509;50.680;17.942;2022-10-16T02:27:06;25.80;;;19.10;;
68505;SDS011;55509;50.680;17.942;2022-10-16T02:30:21;25.60;;;18.60;;
68505;SDS011;55509;50.680;17.942;2022-10-16T02:36:43;23.60;;;17.50;;
68505;SDS011;55509;50.680;17.942;2022-10-16T02:39:47;23.50;;;17.10;;
68505;SDS011;55509;50.680;17.942;2022-10-16T02:42:50;22.20;;;15.70;;
68505;SDS011;55509;50.680;17.942;2022-10-16T02:45:53;21.30;;;17.60;;
68505;SDS011;55509;50.680;17.942;2022-10-16T02:48:55;22.00;;;17.00;;
68505;SDS011;55509;50.680;17.942;2022-10-16T02:51:56;21.80;;;15.20;;
68505;SDS011;55509;50.680;17.942;2022-10-16T02:54:58;23.00;;;18.10;;
68505;SDS011;55509;50.680;17.942;2022-10-16T02:57:59;20.20;;;17.10;;
68505;SDS011;55509;50.680;17.942;2022-10-16T03:04:03;21.40;;;16.10;;
68505;SDS011;55509;50.680;17.942;2022-10-16T03:07:04;22.10;;;17.30;;
68505;SDS011;55509;50.680;17.942;2022-10-16T03:10:06;19.90;;;15.70;;
68505;SDS011;55509;50.680;17.942;2022-10-16T03:13:09;21.50;;;17.10;;
68505;SDS011;55509;50.680;17.942;2022-10-16T03:19:12;20.40;;;17.10;;
68505;SDS011;55509;50.680;17.942;2022-10-16T03:22:14;21.30;;;16.30;;
68505;SDS011;55509;50.680;17.942;2022-10-16T03:25:15;26.40;;;17.70;;
68505;SDS011;55509;50.680;17.942;2022-10-16T03:28:17;21.20;;;18.00;;
68505;SDS011;55509;50.680;17.942;2022-10-16T03:34:20;21.90;;;17.20;;
68505;SDS011;55509;50.680;17.942;2022-10-16T03:37:21;23.50;;;16.60;;
68505;SDS011;55509;50.680;17.942;2022-10-16T03:40:23;22.10;;;16.80;;
68505;SDS011;55509;50.680;17.942;2022-10-16T03:43:25;22.60;;;16.80;;
68505;SDS011;55509;50.680;17.942;2022-10-16T03:46:26;23.40;;;17.30;;
68505;SDS011;55509;50.680;17.942;2022-10-16T03:49:28;18.50;;;15.80;;
68505;SDS011;55509;50.680;17.942;2022-10-16T03:58:32;24.80;;;17.90;;
68505;SDS011;55509;50.680;17.942;2022-10-16T04:01:34;25.60;;;19.40;;
68505;SDS011;55509;50.680;17.942;2022-10-16T04:04:36;25.60;;;17.70;;
68505;SDS011;55509;50.680;17.942;2022-10-16T04:10:39;22.90;;;17.20;;
68505;SDS011;55509;50.680;17.942;2022-10-16T04:13:41;24.00;;;19.70;;
68505;SDS011;55509;50.680;17.942;2022-10-16T04:16:42;19.90;;;16.10;;
68505;SDS011;55509;50.680;17.942;2022-10-16T04:19:44;19.50;;;16.40;;
68505;SDS011;55509;50.680;17.942;2022-10-16T04:25:47;27.80;;;19.20;;
68505;SDS011;55509;50.680;17.942;2022-10-16T04:31:50;25.70;;;20.00;;
68505;SDS011;55509;50.680;17.942;2022-10-16T04:34:51;25.30;;;16.70;;
68505;SDS011;55509;50.680;17.942;2022-10-16T04:37:54;25.40;;;19.30;;
68505;SDS011;55509;50.680;17.942;2022-10-16T04:40:58;30.70;;;20.00;;
68505;SDS011;55509;50.680;17.942;2022-10-16T04:47:01;44.10;;;21.60;;
68505;SDS011;55509;50.680;17.942;2022-10-16T04:50:03;28.00;;;21.90;;
68505;SDS011;55509;50.680;17.942;2022-10-16T04:53:05;24.60;;;19.30;;
68505;SDS011;55509;50.680;17.942;2022-10-16T04:56:08;28.80;;;20.50;;
68505;SDS011;55509;50.680;17.942;2022-10-16T04:59:10;29.00;;;20.90;;
68505;SDS011;55509;50.680;17.942;2022-10-16T05:02:11;23.10;;;19.20;;
68505;SDS011;55509;50.680;17.942;2022-10-16T05:05:13;26.20;;;19.80;;
68505;SDS011;55509;50.680;17.942;2022-10-16T05:08:15;29.10;;;21.60;;
68505;SDS011;55509;50.680;17.942;2022-10-16T05:11:17;23.70;;;20.10;;
68505;SDS011;55509;50.680;17.942;2022-10-16T05:14:19;33.10;;;22.20;;
68505;SDS011;55509;50.680;17.942;2022-10-16T05:20:22;22.20;;;17.60;;
68505;SDS011;55509;50.680;17.942;2022-10-16T05:23:24;26.70;;;20.60;;
68505;SDS011;55509;50.680;17.942;2022-10-16T05:29:27;24.20;;;19.60;;
68505;SDS011;55509;50.680;17.942;2022-10-16T05:35:30;26.60;;;20.20;;
68505;SDS011;55509;50.680;17.942;2022-10-16T05:38:31;26.30;;;19.70;;
68505;SDS011;55509;50.680;17.942;2022-10-16T05:44:34;31.70;;;22.80;;
68505;SDS011;55509;50.680;17.942;2022-10-16T05:47:36;22.90;;;18.60;;
68505;SDS011;55509;50.680;17.942;2022-10-16T05:50:37;28.30;;;21.00;;
68505;SDS011;55509;50.680;17.942;2022-10-16T05:53:39;23.50;;;16.70;;
68505;SDS011;55509;50.680;17.942;2022-10-16T05:56:42;21.80;;;17.00;;
68505;SDS011;55509;50.680;17.942;2022-10-16T05:59:44;26.50;;;17.50;;
68505;SDS011;55509;50.680;17.942;2022-10-16T06:02:46;23.60;;;16.80;;
68505;SDS011;55509;50.680;17.942;2022-10-16T06:05:48;29.80;;;18.90;;
68505;SDS011;55509;50.680;17.942;2022-10-16T06:08:50;29.20;;;20.80;;
68505;SDS011;55509;50.680;17.942;2022-10-16T06:11:53;22.20;;;17.70;;
68505;SDS011;55509;50.680;17.942;2022-10-16T06:14:54;24.80;;;18.70;;
68505;SDS011;55509;50.680;17.942;2022-10-16T06:17:56;21.60;;;18.20;;
68505;SDS011;55509;50.680;17.942;2022-10-16T06:24:00;25.60;;;18.60;;
68505;SDS011;55509;50.680;17.942;2022-10-16T06:27:02;24.40;;;17.70;;
68505;SDS011;55509;50.680;17.942;2022-10-16T06:30:05;23.90;;;18.00;;
68505;SDS011;55509;50.680;17.942;2022-10-16T06:33:08;22.00;;;17.90;;
68505;SDS011;55509;50.680;17.942;2022-10-16T06:36:10;20.00;;;17.90;;
68505;SDS011;55509;50.680;17.942;2022-10-16T06:39:13;24.50;;;18.30;;
68505;SDS011;55509;50.680;17.942;2022-10-16T06:42:15;20.20;;;17.10;;
68505;SDS011;55509;50.680;17.942;2022-10-16T06:45:17;24.80;;;18.80;;
68505;SDS011;55509;50.680;17.942;2022-10-16T06:48:18;22.30;;;17.60;;
68505;SDS011;55509;50.680;17.942;2022-10-16T06:51:21;24.00;;;19.50;;
68505;SDS011;55509;50.680;17.942;2022-10-16T06:54:24;21.00;;;18.10;;
68505;SDS011;55509;50.680;17.942;2022-10-16T06:57:28;29.40;;;19.00;;
68505;SDS011;55509;50.680;17.942;2022-10-16T07:00:30;22.90;;;18.00;;
68505;SDS011;55509;50.680;17.942;2022-10-16T07:03:32;21.30;;;16.70;;
68505;SDS011;55509;50.680;17.942;2022-10-16T07:06:34;24.60;;;18.90;;
68505;SDS011;55509;50.680;17.942;2022-10-16T07:09:35;17.70;;;15.70;;
68505;SDS011;55509;50.680;17.942;2022-10-16T07:12:37;24.00;;;15.30;;
68505;SDS011;55509;50.680;17.942;2022-10-16T07:15:38;22.80;;;17.10;;
68505;SDS011;55509;50.680;17.942;2022-10-16T07:18:41;20.00;;;14.80;;
68505;SDS011;55509;50.680;17.942;2022-10-16T07:21:44;20.30;;;16.30;;
68505;SDS011;55509;50.680;17.942;2022-10-16T07:24:46;23.30;;;18.30;;
68505;SDS011;55509;50.680;17.942;2022-10-16T07:27:47;25.50;;;16.80;;
68505;SDS011;55509;50.680;17.942;2022-10-16T07:30:49;18.80;;;15.10;;
68505;SDS011;55509;50.680;17.942;2022-10-16T07:33:51;16.50;;;13.90;;
68505;SDS011;55509;50.680;17.942;2022-10-16T07:36:52;18.20;;;14.40;;
68505;SDS011;55509;50.680;17.942;2022-10-16T07:39:54;18.40;;;16.10;;
68505;SDS011;55509;50.680;17.942;2022-10-16T07:42:56;20.90;;;16.80;;
68505;SDS011;55509;50.680;17.942;2022-10-16T07:45:58;21.10;;;17.30;;
68505;SDS011;55509;50.680;17.942;2022-10-16T07:48:59;18.30;;;14.00;;
68505;SDS011;55509;50.680;17.942;2022-10-16T07:52:01;18.10;;;14.50;;
68505;SDS011;55509;50.680;17.942;2022-10-16T07:55:03;19.90;;;15.20;;
68505;SDS011;55509;50.680;17.942;2022-10-16T07:58:06;19.20;;;15.40;;
68505;SDS011;55509;50.680;17.942;2022-10-16T08:01:08;20.70;;;15.40;;
68505;SDS011;55509;50.680;17.942;2022-10-16T08:04:11;17.70;;;13.70;;
68505;SDS011;55509;50.680;17.942;2022-10-16T08:07:13;16.90;;;15.10;;
68505;SDS011;55509;50.680;17.942;2022-10-16T08:10:18;17.00;;;14.40;;
68505;SDS011;55509;50.680;17.942;2022-10-16T08:13:21;17.90;;;13.90;;
68505;SDS011;55509;50.680;17.942;2022-10-16T08:16:23;18.80;;;15.10;;
68505;SDS011;55509;50.680;17.942;2022-10-16T08:19:25;14.20;;;11.10;;
68505;SDS011;55509;50.680;17.942;2022-10-16T08:22:26;20.00;;;14.30;;
68505;SDS011;55509;50.680;17.942;2022-10-16T08:25:28;16.00;;;12.80;;
68505;SDS011;55509;50.680;17.942;2022-10-16T08:28:30;17.30;;;13.00;;
68505;SDS011;55509;50.680;17.942;2022-10-16T08:31:32;18.40;;;14.20;;
68505;SDS011;55509;50.680;17.942;2022-10-16T08:34:34;18.40;;;12.90;;
68505;SDS011;55509;50.680;17.942;2022-10-16T08:37:36;16.70;;;13.90;;
68505;SDS011;55509;50.680;17.942;2022-10-16T08:40:38;16.50;;;13.30;;
68505;SDS011;55509;50.680;17.942;2022-10-16T08:50:31;14.80;;;13.10;;
68505;SDS011;55509;50.680;17.942;2022-10-16T08:53:43;15.40;;;13.70;;
68505;SDS011;55509;50.680;17.942;2022-10-16T08:56:50;20.40;;;14.50;;
68505;SDS011;55509;50.680;17.942;2022-10-16T08:59:51;13.60;;;12.20;;
68505;SDS011;55509;50.680;17.942;2022-10-16T09:06:29;18.20;;;14.00;;
68505;SDS011;55509;50.680;17.942;2022-10-16T09:19:44;12.60;;;11.00;;
68505;SDS011;55509;50.680;17.942;2022-10-16T09:23:15;11.90;;;10.60;;
68505;SDS011;55509;50.680;17.942;2022-10-16T09:26:16;18.00;;;13.90;;
68505;SDS011;55509;50.680;17.942;2022-10-16T09:29:20;13.60;;;12.10;;
68505;SDS011;55509;50.680;17.942;2022-10-16T09:32:24;15.90;;;12.40;;
68505;SDS011;55509;50.680;17.942;2022-10-16T09:35:36;12.50;;;10.50;;
68505;SDS011;55509;50.680;17.942;2022-10-16T09:38:43;13.50;;;11.90;;
68505;SDS011;55509;50.680;17.942;2022-10-16T09:41:44;15.10;;;12.80;;
68505;SDS011;55509;50.680;17.942;2022-10-16T09:44:47;12.00;;;10.80;;
68505;SDS011;55509;50.680;17.942;2022-10-16T09:47:51;13.60;;;12.20;;
68505;SDS011;55509;50.680;17.942;2022-10-16T09:50:59;19.80;;;11.10;;
68505;SDS011;55509;50.680;17.942;2022-10-16T09:57:07;15.60;;;13.40;;
68505;SDS011;55509;50.680;17.942;2022-10-16T10:00:18;21.80;;;13.50;;
68505;SDS011;55509;50.680;17.942;2022-10-16T10:06:46;17.10;;;11.90;;
68505;SDS011;55509;50.680;17.942;2022-10-16T10:10:03;16.20;;;13.90;;
68505;SDS011;55509;50.680;17.942;2022-10-16T10:13:19;15.90;;;14.30;;
68505;SDS011;55509;50.680;17.942;2022-10-16T10:16:25;14.50;;;12.50;;
68505;SDS011;55509;50.680;17.942;2022-10-16T10:19:26;12.70;;;10.90;;
68505;SDS011;55509;50.680;17.942;2022-10-16T10:22:38;12.50;;;10.90;;
68505;SDS011;55509;50.680;17.942;2022-10-16T10:26:05;14.80;;;10.70;;
68505;SDS011;55509;50.680;17.942;2022-10-16T10:29:25;14.20;;;10.80;;
68505;SDS011;55509;50.680;17.942;2022-10-16T10:32:33;16.30;;;11.70;;
68505;SDS011;55509;50.680;17.942;2022-10-16T10:45:28;15.20;;;13.70;;
68505;SDS011;55509;50.680;17.942;2022-10-16T11:02:26;18.40;;;16.50;;
68505;SDS011;55509;50.680;17.942;2022-10-16T11:05:55;15.30;;;13.10;;
68505;SDS011;55509;50.680;17.942;2022-10-16T11:09:00;19.50;;;15.80;;
68505;SDS011;55509;50.680;17.942;2022-10-16T11:12:21;15.80;;;14.00;;
68505;SDS011;55509;50.680;17.942;2022-10-16T11:15:31;15.30;;;13.50;;
68505;SDS011;55509;50.680;17.942;2022-10-16T11:18:46;17.10;;;13.90;;
68505;SDS011;55509;50.680;17.942;2022-10-16T11:25:29;16.90;;;13.30;;
68505;SDS011;55509;50.680;17.942;2022-10-16T11:28:34;15.10;;;13.60;;
68505;SDS011;55509;50.680;17.942;2022-10-16T11:31:45;16.00;;;14.10;;
68505;SDS011;55509;50.680;17.942;2022-10-16T11:34:56;15.70;;;14.10;;
68505;SDS011;55509;50.680;17.942;2022-10-16T11:38:03;17.30;;;14.70;;
68505;SDS011;55509;50.680;17.942;2022-10-16T11:41:18;18.80;;;15.30;;
68505;SDS011;55509;50.680;17.942;2022-10-16T11:48:02;15.60;;;14.00;;
68505;SDS011;55509;50.680;17.942;2022-10-16T11:51:31;17.20;;;15.50;;
68505;SDS011;55509;50.680;17.942;2022-10-16T11:57:53;16.20;;;13.30;;
68505;SDS011;55509;50.680;17.942;2022-10-16T12:07:22;17.30;;;14.80;;
68505;SDS011;55509;50.680;17.942;2022-10-16T12:10:29;14.50;;;13.10;;
68505;SDS011;55509;50.680;17.942;2022-10-16T12:13:39;12.90;;;11.70;;
68505;SDS011;55509;50.680;17.942;2022-10-16T12:16:52;17.20;;;12.50;;
68505;SDS011;55509;50.680;17.942;2022-10-16T12:19:57;15.30;;;12.00;;
68505;SDS011;55509;50.680;17.942;2022-10-16T12:23:02;14.40;;;13.10;;
68505;SDS011;55509;50.680;17.942;2022-10-16T12:26:07;12.10;;;10.90;;
68505;SDS011;55509;50.680;17.942;2022-10-16T12:32:32;12.50;;;11.30;;
68505;SDS011;55509;50.680;17.942;2022-10-16T12:35:42;12.00;;;10.70;;
68505;SDS011;55509;50.680;17.942;2022-10-16T12:38:47;12.50;;;11.30;;
68505;SDS011;55509;50.680;17.942;2022-10-16T12:42:02;11.50;;;10.40;;
68505;SDS011;55509;50.680;17.942;2022-10-16T12:48:43;16.10;;;14.30;;
68505;SDS011;55509;50.680;17.942;2022-10-16T12:51:47;17.30;;;15.10;;
68505;SDS011;55509;50.680;17.942;2022-10-16T12:54:51;16.90;;;13.40;;
68505;SDS011;55509;50.680;17.942;2022-10-16T12:58:13;15.10;;;13.60;;
68505;SDS011;55509;50.680;17.942;2022-10-16T13:09:22;16.70;;;15.00;;
68505;SDS011;55509;50.680;17.942;2022-10-16T13:32:32;13.10;;;11.70;;
68505;SDS011;55509;50.680;17.942;2022-10-16T13:35:34;15.70;;;14.30;;
68505;SDS011;55509;50.680;17.942;2022-10-16T13:38:36;17.30;;;15.70;;
68505;SDS011;55509;50.680;17.942;2022-10-16T13:41:38;15.40;;;13.80;;
68505;SDS011;55509;50.680;17.942;2022-10-16T13:44:43;15.00;;;13.00;;
68505;SDS011;55509;50.680;17.942;2022-10-16T13:47:49;16.90;;;15.20;;
68505;SDS011;55509;50.680;17.942;2022-10-16T13:51:00;17.70;;;15.70;;
68505;SDS011;55509;50.680;17.942;2022-10-16T13:54:04;21.50;;;16.00;;
68505;SDS011;55509;50.680;17.942;2022-10-16T13:57:05;15.80;;;14.00;;
68505;SDS011;55509;50.680;17.942;2022-10-16T14:00:26;18.60;;;16.20;;
68505;SDS011;55509;50.680;17.942;2022-10-16T14:03:33;21.20;;;16.80;;
68505;SDS011;55509;50.680;17.942;2022-10-16T14:06:36;15.90;;;14.20;;
68505;SDS011;55509;50.680;17.942;2022-10-16T14:09:47;18.10;;;15.10;;
68505;SDS011;55509;50.680;17.942;2022-10-16T14:12:57;18.20;;;14.50;;
68505;SDS011;55509;50.680;17.942;2022-10-16T14:16:03;17.70;;;15.90;;
68505;SDS011;55509;50.680;17.942;2022-10-16T14:19:17;20.90;;;16.20;;
68505;SDS011;55509;50.680;17.942;2022-10-16T14:25:38;25.90;;;17.10;;
68505;SDS011;55509;50.680;17.942;2022-10-16T14:28:40;16.80;;;14.70;;
68505;SDS011;55509;50.680;17.942;2022-10-16T14:31:55;17.50;;;14.60;;
68505;SDS011;55509;50.680;17.942;2022-10-16T14:35:02;18.20;;;15.70;;
68505;SDS011;55509;50.680;17.942;2022-10-16T14:38:04;27.70;;;17.00;;
68505;SDS011;55509;50.680;17.942;2022-10-16T14:41:07;20.30;;;18.20;;
68505;SDS011;55509;50.680;17.942;2022-10-16T14:44:09;21.40;;;15.50;;
68505;SDS011;55509;50.680;17.942;2022-10-16T14:47:13;20.40;;;17.20;;
68505;SDS011;55509;50.680;17.942;2022-10-16T14:50:18;20.60;;;18.40;;
68505;SDS011;55509;50.680;17.942;2022-10-16T14:53:19;21.30;;;16.70;;
68505;SDS011;55509;50.680;17.942;2022-10-16T14:56:23;22.30;;;17.30;;
68505;SDS011;55509;50.680;17.942;2022-10-16T14:59:28;25.60;;;19.30;;
68505;SDS011;55509;50.680;17.942;2022-10-16T15:02:50;21.70;;;19.40;;
68505;SDS011;55509;50.680;17.942;2022-10-16T15:05:52;24.10;;;18.90;;
68505;SDS011;55509;50.680;17.942;2022-10-16T15:08:54;20.80;;;18.30;;
68505;SDS011;55509;50.680;17.942;2022-10-16T15:11:55;20.50;;;16.80;;
68505;SDS011;55509;50.680;17.942;2022-10-16T15:14:57;23.80;;;18.60;;
68505;SDS011;55509;50.680;17.942;2022-10-16T15:17:58;23.50;;;17.70;;
68505;SDS011;55509;50.680;17.942;2022-10-16T15:21:06;23.30;;;21.00;;
68505;SDS011;55509;50.680;17.942;2022-10-16T15:24:09;24.70;;;20.30;;
68505;SDS011;55509;50.680;17.942;2022-10-16T15:27:13;24.50;;;22.00;;
68505;SDS011;55509;50.680;17.942;2022-10-16T15:30:15;24.20;;;20.80;;
68505;SDS011;55509;50.680;17.942;2022-10-16T15:33:19;27.40;;;21.60;;
68505;SDS011;55509;50.680;17.942;2022-10-16T15:39:51;23.40;;;19.00;;
68505;SDS011;55509;50.680;17.942;2022-10-16T15:42:53;24.40;;;18.90;;
68505;SDS011;55509;50.680;17.942;2022-10-16T15:49:07;23.80;;;21.30;;
68505;SDS011;55509;50.680;17.942;2022-10-16T15:52:10;22.60;;;18.60;;
68505;SDS011;55509;50.680;17.942;2022-10-16T15:55:13;22.10;;;19.80;;
68505;SDS011;55509;50.680;17.942;2022-10-16T15:58:15;23.60;;;19.50;;
68505;SDS011;55509;50.680;17.942;2022-10-16T16:01:17;34.50;;;25.00;;
68505;SDS011;55509;50.680;17.942;2022-10-16T16:04:18;26.40;;;23.40;;
68505;SDS011;55509;50.680;17.942;2022-10-16T16:07:20;25.70;;;21.60;;
68505;SDS011;55509;50.680;17.942;2022-10-16T16:10:22;25.60;;;19.20;;
68505;SDS011;55509;50.680;17.942;2022-10-16T16:13:26;24.30;;;19.30;;
68505;SDS011;55509;50.680;17.942;2022-10-16T16:16:28;32.30;;;21.80;;
68505;SDS011;55509;50.680;17.942;2022-10-16T16:19:29;23.90;;;20.10;;
68505;SDS011;55509;50.680;17.942;2022-10-16T16:22:32;25.90;;;20.20;;
68505;SDS011;55509;50.680;17.942;2022-10-16T16:25:33;28.60;;;21.20;;
68505;SDS011;55509;50.680;17.942;2022-10-16T16:28:35;33.40;;;26.90;;
68505;SDS011;55509;50.680;17.942;2022-10-16T16:31:37;27.50;;;21.60;;
68505;SDS011;55509;50.680;17.942;2022-10-16T16:34:39;29.50;;;22.40;;
68505;SDS011;55509;50.680;17.942;2022-10-16T16:37:40;24.40;;;19.10;;
68505;SDS011;55509;50.680;17.942;2022-10-16T16:40:42;23.00;;;18.80;;
68505;SDS011;55509;50.680;17.942;2022-10-16T16:43:43;23.80;;;20.80;;
68505;SDS011;55509;50.680;17.942;2022-10-16T16:46:45;25.00;;;20.40;;
68505;SDS011;55509;50.680;17.942;2022-10-16T16:49:47;25.40;;;21.40;;
68505;SDS011;55509;50.680;17.942;2022-10-16T16:52:49;26.40;;;20.10;;
68505;SDS011;55509;50.680;17.942;2022-10-16T16:55:51;19.90;;;15.90;;
68505;SDS011;55509;50.680;17.942;2022-10-16T16:58:53;21.30;;;16.50;;
68505;SDS011;55509;50.680;17.942;2022-10-16T17:01:56;18.80;;;15.90;;
68505;SDS011;55509;50.680;17.942;2022-10-16T17:04:59;19.50;;;17.40;;
68505;SDS011;55509;50.680;17.942;2022-10-16T17:08:01;25.00;;;18.50;;
68505;SDS011;55509;50.680;17.942;2022-10-16T17:11:03;31.90;;;19.00;;
68505;SDS011;55509;50.680;17.942;2022-10-16T17:14:05;27.80;;;19.70;;
68505;SDS011;55509;50.680;17.942;2022-10-16T17:17:09;25.20;;;17.10;;
68505;SDS011;55509;50.680;17.942;2022-10-16T17:20:11;26.00;;;19.60;;
68505;SDS011;55509;50.680;17.942;2022-10-16T17:23:13;25.00;;;20.80;;
68505;SDS011;55509;50.680;17.942;2022-10-16T17:26:16;24.00;;;21.20;;
68505;SDS011;55509;50.680;17.942;2022-10-16T17:29:18;23.70;;;16.90;;
68505;SDS011;55509;50.680;17.942;2022-10-16T17:32:20;32.10;;;27.10;;
68505;SDS011;55509;50.680;17.942;2022-10-16T17:35:23;29.50;;;19.90;;
68505;SDS011;55509;50.680;17.942;2022-10-16T17:38:25;24.70;;;21.20;;
68505;SDS011;55509;50.680;17.942;2022-10-16T17:41:27;26.50;;;21.30;;
68505;SDS011;55509;50.680;17.942;2022-10-16T17:44:28;21.20;;;17.80;;
68505;SDS011;55509;50.680;17.942;2022-10-16T17:47:30;30.70;;;20.90;;
68505;SDS011;55509;50.680;17.942;2022-10-16T17:50:31;29.10;;;21.80;;
68505;SDS011;55509;50.680;17.942;2022-10-16T17:53:33;24.70;;;20.00;;
68505;SDS011;55509;50.680;17.942;2022-10-16T17:56:36;22.40;;;19.50;;
68505;SDS011;55509;50.680;17.942;2022-10-16T17:59:38;25.30;;;18.60;;
68505;SDS011;55509;50.680;17.942;2022-10-16T18:02:39;26.30;;;21.30;;
68505;SDS011;55509;50.680;17.942;2022-10-16T18:05:42;26.60;;;20.20;;
68505;SDS011;55509;50.680;17.942;2022-10-16T18:08:44;26.00;;;20.60;;
68505;SDS011;55509;50.680;17.942;2022-10-16T18:11:47;26.20;;;18.10;;
68505;SDS011;55509;50.680;17.942;2022-10-16T18:14:59;25.80;;;19.80;;
68505;SDS011;55509;50.680;17.942;2022-10-16T18:18:01;37.90;;;30.40;;
68505;SDS011;55509;50.680;17.942;2022-10-16T18:21:04;30.00;;;22.70;;
68505;SDS011;55509;50.680;17.942;2022-10-16T18:24:07;26.80;;;20.50;;
68505;SDS011;55509;50.680;17.942;2022-10-16T18:27:09;33.40;;;21.60;;
68505;SDS011;55509;50.680;17.942;2022-10-16T18:30:11;35.30;;;25.80;;
68505;SDS011;55509;50.680;17.942;2022-10-16T18:33:13;32.40;;;24.00;;
68505;SDS011;55509;50.680;17.942;2022-10-16T18:36:16;28.70;;;21.20;;
68505;SDS011;55509;50.680;17.942;2022-10-16T18:39:20;26.50;;;21.80;;
68505;SDS011;55509;50.680;17.942;2022-10-16T18:42:23;37.90;;;26.30;;
68505;SDS011;55509;50.680;17.942;2022-10-16T18:45:25;34.70;;;23.40;;
68505;SDS011;55509;50.680;17.942;2022-10-16T18:48:27;27.10;;;20.20;;
68505;SDS011;55509;50.680;17.942;2022-10-16T18:51:31;29.00;;;21.80;;
68505;SDS011;55509;50.680;17.942;2022-10-16T18:54:34;30.20;;;22.20;;
68505;SDS011;55509;50.680;17.942;2022-10-16T18:57:37;31.70;;;22.70;;
68505;SDS011;55509;50.680;17.942;2022-10-16T19:00:39;25.00;;;19.90;;
68505;SDS011;55509;50.680;17.942;2022-10-16T19:03:40;23.10;;;18.40;;
68505;SDS011;55509;50.680;17.942;2022-10-16T19:06:43;31.10;;;23.60;;
68505;SDS011;55509;50.680;17.942;2022-10-16T19:09:46;26.00;;;21.80;;
68505;SDS011;55509;50.680;17.942;2022-10-16T19:12:48;25.40;;;20.40;;
68505;SDS011;55509;50.680;17.942;2022-10-16T19:15:49;29.60;;;22.00;;
68505;SDS011;55509;50.680;17.942;2022-10-16T19:18:52;28.90;;;21.70;;
68505;SDS011;55509;50.680;17.942;2022-10-16T19:21:55;25.70;;;19.70;;
68505;SDS011;55509;50.680;17.942;2022-10-16T19:25:11;20.80;;;16.60;;
68505;SDS011;55509;50.680;17.942;2022-10-16T19:28:13;26.60;;;20.70;;
68505;SDS011;55509;50.680;17.942;2022-10-16T19:31:15;27.80;;;22.20;;
68505;SDS011;55509;50.680;17.942;2022-10-16T19:34:19;27.60;;;21.30;;
68505;SDS011;55509;50.680;17.942;2022-10-16T19:37:21;23.50;;;19.80;;
68505;SDS011;55509;50.680;17.942;2022-10-16T19:40:26;28.90;;;22.10;;
68505;SDS011;55509;50.680;17.942;2022-10-16T19:43:28;26.70;;;20.90;;
68505;SDS011;55509;50.680;17.942;2022-10-16T19:46:30;33.30;;;21.00;;
68505;SDS011;55509;50.680;17.942;2022-10-16T19:49:32;23.40;;;18.50;;
68505;SDS011;55509;50.680;17.942;2022-10-16T19:52:34;28.50;;;22.00;;
68505;SDS011;55509;50.680;17.942;2022-10-16T19:55:37;35.00;;;23.30;;
68505;SDS011;55509;50.680;17.942;2022-10-16T19:58:39;27.40;;;21.60;;
68505;SDS011;55509;50.680;17.942;2022-10-16T20:01:40;25.30;;;20.50;;
68505;SDS011;55509;50.680;17.942;2022-10-16T20:04:42;22.60;;;19.00;;
68505;SDS011;55509;50.680;17.942;2022-10-16T20:07:43;32.30;;;21.80;;
68505;SDS011;55509;50.680;17.942;2022-10-16T20:10:52;23.60;;;20.20;;
68505;SDS011;55509;50.680;17.942;2022-10-16T20:13:55;20.50;;;18.00;;
68505;SDS011;55509;50.680;17.942;2022-10-16T20:16:57;27.20;;;21.50;;
68505;SDS011;55509;50.680;17.942;2022-10-16T20:19:58;30.70;;;24.40;;
68505;SDS011;55509;50.680;17.942;2022-10-16T20:23:00;29.30;;;22.50;;
68505;SDS011;55509;50.680;17.942;2022-10-16T20:26:02;23.90;;;20.20;;
68505;SDS011;55509;50.680;17.942;2022-10-16T20:29:04;28.70;;;21.10;;
68505;SDS011;55509;50.680;17.942;2022-10-16T20:32:06;26.90;;;21.30;;
68505;SDS011;55509;50.680;17.942;2022-10-16T20:35:08;27.80;;;23.80;;
68505;SDS011;55509;50.680;17.942;2022-10-16T20:38:10;24.80;;;20.20;;
68505;SDS011;55509;50.680;17.942;2022-10-16T20:41:13;31.80;;;22.70;;
68505;SDS011;55509;50.680;17.942;2022-10-16T20:44:16;30.30;;;21.60;;
68505;SDS011;55509;50.680;17.942;2022-10-16T20:47:17;30.80;;;22.80;;
68505;SDS011;55509;50.680;17.942;2022-10-16T20:50:19;26.50;;;20.80;;